createdAt,value
2022-08-22T00:00:16.668Z,101163.63
2022-08-22T00:02:56.789Z,101163.53
2022-08-22T00:05:51.477Z,101160.13
2022-08-22T00:08:59.363Z,101156.63
2022-08-22T00:11:32.030Z,101155.34
2022-08-22T00:14:17.376Z,101157.16
2022-08-22T00:16:57.626Z,101155.34
2022-08-22T00:19:53.361Z,101154.09
2022-08-22T00:22:26.227Z,101146.63
2022-08-22T00:25:02.899Z,101151.56
2022-08-22T00:27:37.895Z,101147.06
2022-08-22T00:30:16.516Z,101148.34
2022-08-22T00:32:53.053Z,101154.38
2022-08-22T00:35:22.745Z,101152.56
2022-08-22T00:38:08.187Z,101150.88
2022-08-22T00:40:53.639Z,101157.91
2022-08-22T00:43:38.613Z,101154.81
2022-08-22T00:46:33.131Z,101151.28
2022-08-22T00:49:37.530Z,101160.53
2022-08-22T00:52:23.976Z,101158.97
2022-08-22T00:54:53.642Z,101159.97
2022-08-22T00:57:35.302Z,101158.72
2022-08-22T01:00:20.638Z,101153.09
2022-08-22T01:03:05.358Z,101152.38
2022-08-22T01:05:53.882Z,101153.63
2022-08-22T01:08:39.676Z,101153.78
2022-08-22T01:11:50.568Z,101149.44
2022-08-22T01:14:34.289Z,101143.81
2022-08-22T01:17:33.217Z,101147.88
2022-08-22T01:20:24.373Z,101152.78
2022-08-22T01:23:13.784Z,101144.50
2022-08-22T01:26:10.720Z,101153.63
2022-08-22T01:28:38.611Z,101145.78
2022-08-22T01:31:25.483Z,101154.03
2022-08-22T01:34:31.308Z,101148.00
2022-08-22T01:37:30.671Z,101150.53
2022-08-22T01:40:31.129Z,101146.44
2022-08-22T01:43:21.993Z,101144.75
2022-08-22T01:46:08.566Z,101145.41
2022-08-22T01:49:16.514Z,101144.47
2022-08-22T01:51:51.457Z,101145.03
2022-08-22T01:54:27.077Z,101139.00
2022-08-22T01:57:01.065Z,101139.38
2022-08-22T01:59:42.456Z,101144.53
2022-08-22T02:02:32.034Z,101133.38
2022-08-22T02:05:16.990Z,101132.94
2022-08-22T02:07:56.440Z,101134.19
2022-08-22T02:10:23.486Z,101129.97
2022-08-22T02:13:00.249Z,101133.59
2022-08-22T02:15:41.282Z,101136.97
2022-08-22T02:18:25.890Z,101125.72
2022-08-22T02:21:05.111Z,101132.19
2022-08-22T02:23:58.560Z,101137.91
2022-08-22T02:26:28.017Z,101135.63
2022-08-22T02:29:04.706Z,101142.22
2022-08-22T02:31:53.308Z,101136.03
2022-08-22T02:34:37.131Z,101133.38
2022-08-22T02:37:15.610Z,101132.66
2022-08-22T02:39:56.432Z,101132.22
2022-08-22T02:42:43.232Z,101129.69
2022-08-22T02:45:20.881Z,101129.16
2022-08-22T02:47:55.807Z,101127.88
2022-08-22T02:51:01.365Z,101124.91
2022-08-22T02:54:08.936Z,101127.81
2022-08-22T02:56:43.770Z,101123.41
2022-08-22T02:59:34.911Z,101120.88
2022-08-22T03:02:29.672Z,101115.13
2022-08-22T03:05:29.573Z,101116.44
2022-08-22T03:08:12.939Z,101110.41
2022-08-22T03:10:45.480Z,101110.09
2022-08-22T03:13:24.585Z,101108.66
2022-08-22T03:16:04.514Z,101105.00
2022-08-22T03:18:41.374Z,101105.34
2022-08-22T03:21:17.157Z,101101.44
2022-08-22T03:23:50.481Z,101107.31
2022-08-22T03:26:33.407Z,101098.19
2022-08-22T03:29:11.553Z,101103.19
2022-08-22T03:32:04.956Z,101100.91
2022-08-22T03:34:31.616Z,101102.75
2022-08-22T03:37:20.839Z,101103.69
2022-08-22T03:40:15.029Z,101102.47
2022-08-22T03:43:09.055Z,101094.94
2022-08-22T03:45:57.941Z,101098.31
2022-08-22T03:48:43.109Z,101086.69
2022-08-22T03:51:40.740Z,101081.84
2022-08-22T03:54:30.420Z,101082.53
2022-08-22T03:57:35.231Z,101080.97
2022-08-22T04:00:31.938Z,101082.44
2022-08-22T04:02:58.516Z,101085.81
2022-08-22T04:05:27.680Z,101088.22
2022-08-22T04:08:29.153Z,101082.44
2022-08-22T04:11:08.232Z,101084.72
2022-08-22T04:13:59.529Z,101087.25
2022-08-22T04:16:43.484Z,101084.72
2022-08-22T04:19:38.632Z,101088.84
2022-08-22T04:22:21.669Z,101089.91
2022-08-22T04:25:08.301Z,101091.63
2022-08-22T04:27:45.436Z,101095.38
2022-08-22T04:30:25.119Z,101089.81
2022-08-22T04:33:15.269Z,101097.06
2022-08-22T04:35:46.126Z,101088.97
2022-08-22T04:38:20.531Z,101086.16
2022-08-22T04:40:55.720Z,101088.97
2022-08-22T04:43:36.383Z,101090.13
2022-08-22T04:46:11.271Z,101092.78
2022-08-22T04:48:45.493Z,101090.72
2022-08-22T04:51:31.998Z,101096.31
2022-08-22T04:54:20.040Z,101097.59
2022-08-22T04:57:02.680Z,101092.84
2022-08-22T04:59:30.868Z,101095.13
2022-08-22T05:02:06.695Z,101100.44
2022-08-22T05:04:43.609Z,101100.84
2022-08-22T05:07:16.933Z,101108.25
2022-08-22T05:09:49.373Z,101105.00
2022-08-22T05:12:29.198Z,101106.84
2022-08-22T05:15:10.018Z,101106.00
2022-08-22T05:17:38.899Z,101105.13
2022-08-22T05:20:11.945Z,101113.13
2022-08-22T05:22:43.411Z,101108.78
2022-08-22T05:25:15.038Z,101103.38
2022-08-22T05:27:48.335Z,101112.59
2022-08-22T05:30:22.241Z,101108.97
2022-08-22T05:32:51.743Z,101105.34
2022-08-22T05:35:25.215Z,101111.16
2022-08-22T05:37:55.211Z,101113.13
2022-08-22T05:40:29.303Z,101111.50
2022-08-22T05:42:57.683Z,101115.31
2022-08-22T05:45:27.027Z,101124.72
2022-08-22T05:48:16.218Z,101120.94
2022-08-22T05:50:50.939Z,101122.03
2022-08-22T05:53:30.639Z,101119.38
2022-08-22T05:56:03.290Z,101123.47
2022-08-22T05:58:39.162Z,101125.59
2022-08-22T06:01:20.986Z,101122.28
2022-08-22T06:04:09.306Z,101123.72
2022-08-22T06:06:56.512Z,101127.78
2022-08-22T06:09:35.542Z,101128.16
2022-08-22T06:12:21.811Z,101126.25
2022-08-22T06:15:14.388Z,101130.00
2022-08-22T06:18:06.630Z,101135.72
2022-08-22T06:20:36.640Z,101139.63
2022-08-22T06:23:05.847Z,101149.47
2022-08-22T06:25:35.470Z,101150.78
2022-08-22T06:28:07.881Z,101152.50
2022-08-22T06:30:36.722Z,101144.56
2022-08-22T06:33:12.527Z,101135.16
2022-08-22T06:36:07.294Z,101138.13
2022-08-22T06:38:54.397Z,101136.09
2022-08-22T06:41:23.808Z,101138.22
2022-08-22T06:43:52.755Z,101142.19
2022-08-22T06:46:36.340Z,101139.50
2022-08-22T06:49:05.627Z,101145.31
2022-08-22T06:51:35.559Z,101144.44
2022-08-22T06:54:05.454Z,101142.94
2022-08-22T06:56:44.278Z,101141.78
2022-08-22T06:59:17.364Z,101146.28
2022-08-22T07:02:17.699Z,101138.75
2022-08-22T07:04:49.136Z,101136.72
2022-08-22T07:07:19.912Z,101138.91
2022-08-22T07:09:51.273Z,101144.84
2022-08-22T07:12:20.576Z,101139.91
2022-08-22T07:14:50.838Z,101137.00
2022-08-22T07:17:30.517Z,101138.41
2022-08-22T07:20:24.792Z,101141.91
2022-08-22T07:23:01.069Z,101138.31
2022-08-22T07:25:28.785Z,101134.41
2022-08-22T07:28:03.836Z,101131.69
2022-08-22T07:31:03.533Z,101133.03
2022-08-22T07:33:43.897Z,101136.84
2022-08-22T07:36:22.607Z,101141.50
2022-08-22T07:39:11.180Z,101139.38
2022-08-22T07:41:58.019Z,101147.50
2022-08-22T07:44:31.213Z,101153.38
2022-08-22T07:47:49.652Z,101149.16
2022-08-22T07:50:23.153Z,101151.41
2022-08-22T07:52:52.568Z,101153.50
2022-08-22T07:55:23.282Z,101152.06
2022-08-22T07:58:04.003Z,101150.59
2022-08-22T08:00:32.408Z,101149.84
2022-08-22T08:03:04.653Z,101141.81
2022-08-22T08:05:36.398Z,101142.03
2022-08-22T08:08:21.291Z,101144.94
2022-08-22T08:10:50.749Z,101138.13
2022-08-22T08:13:26.310Z,101135.31
2022-08-22T08:15:53.505Z,101135.53
2022-08-22T08:18:25.850Z,101133.84
2022-08-22T08:20:57.431Z,101130.47
2022-08-22T08:23:26.607Z,101121.28
2022-08-22T08:26:10.444Z,101123.50
2022-08-22T08:28:58.189Z,101117.56
2022-08-22T08:31:27.942Z,101111.66
2022-08-22T08:34:09.121Z,101110.44
2022-08-22T08:36:56.049Z,101113.03
2022-08-22T08:40:01.020Z,101115.22
2022-08-22T08:43:05.112Z,101111.13
2022-08-22T08:45:37.249Z,101106.34
2022-08-22T08:48:38.670Z,101098.41
2022-08-22T08:51:40.857Z,101094.97
2022-08-22T08:54:33.002Z,101096.50
2022-08-22T08:57:25.648Z,101086.75
2022-08-22T09:00:14.567Z,101089.66
2022-08-22T09:02:53.703Z,101088.13
2022-08-22T09:05:49.476Z,101082.72
2022-08-22T09:08:52.734Z,101081.19
2022-08-22T09:11:51.222Z,101077.72
2022-08-22T09:14:50.663Z,101080.00
2022-08-22T09:17:54.788Z,101072.84
2022-08-22T09:20:25.403Z,101072.50
2022-08-22T09:23:13.850Z,101066.16
2022-08-22T09:26:09.934Z,101072.13
2022-08-22T09:28:53.356Z,101074.06
2022-08-22T09:34:36.017Z,101069.94
2022-08-22T09:37:20.903Z,101065.19
2022-08-22T09:40:00.051Z,101062.06
2022-08-22T09:43:11.008Z,101059.44
2022-08-22T09:45:50.054Z,101060.31
2022-08-22T09:48:28.764Z,101056.88
2022-08-22T09:51:32.269Z,101059.97
2022-08-22T09:54:23.053Z,101060.31
2022-08-22T09:56:57.135Z,101063.72
2022-08-22T09:59:51.851Z,101062.28
2022-08-22T10:02:27.264Z,101061.41
2022-08-22T10:05:13.258Z,101065.75
2022-08-22T10:08:12.844Z,101059.16
2022-08-22T10:10:52.958Z,101055.94
2022-08-22T10:13:46.435Z,101060.84
2022-08-22T10:16:25.229Z,101058.00
2022-08-22T10:19:11.891Z,101052.94
2022-08-22T10:21:47.361Z,101053.53
2022-08-22T10:24:25.551Z,101053.91
2022-08-22T10:27:01.773Z,101047.84
2022-08-22T10:29:47.198Z,101048.09
2022-08-22T10:32:28.218Z,101046.00
2022-08-22T10:34:59.627Z,101048.94
2022-08-22T10:37:39.520Z,101039.84
2022-08-22T10:40:29.143Z,101044.53
2022-08-22T10:42:59.853Z,101045.41
2022-08-22T10:45:45.559Z,101045.50
2022-08-22T10:48:12.059Z,101044.13
2022-08-22T10:51:04.411Z,101049.03
2022-08-22T10:53:53.837Z,101044.97
2022-08-22T10:56:34.443Z,101036.19
2022-08-22T10:59:23.319Z,101037.91
2022-08-22T11:02:02.095Z,101026.66
2022-08-22T11:05:06.092Z,101030.91
2022-08-22T11:08:01.104Z,101024.03
2022-08-22T11:10:41.198Z,101018.47
2022-08-22T11:13:14.018Z,101021.81
2022-08-22T11:16:07.974Z,101019.09
2022-08-22T11:19:01.918Z,101015.75
2022-08-22T11:21:45.946Z,101019.97
2022-08-22T11:24:36.177Z,101019.53
2022-08-22T11:27:21.871Z,101014.03
2022-08-22T11:30:20.545Z,101010.63
2022-08-22T11:33:02.341Z,101008.94
2022-08-22T11:35:39.352Z,101003.81
2022-08-22T11:38:14.735Z,100998.69
2022-08-22T11:40:49.383Z,101007.56
2022-08-22T11:43:37.598Z,101006.03
2022-08-22T11:46:15.726Z,101001.03
2022-08-22T11:49:15.991Z,101000.38
2022-08-22T11:52:07.268Z,101005.94
2022-08-22T11:55:01.569Z,100996.66
2022-08-22T11:57:36.481Z,100996.47
2022-08-22T12:00:18.184Z,101000.47
2022-08-22T12:03:25.074Z,100992.94
2022-08-22T12:06:19.906Z,100988.81
2022-08-22T12:08:49.361Z,100988.03
2022-08-22T12:11:25.009Z,100989.88
2022-08-22T12:14:06.606Z,100989.38
2022-08-22T12:16:36.318Z,100980.94
2022-08-22T12:19:14.962Z,100979.44
2022-08-22T12:21:56.487Z,100979.72
2022-08-22T12:24:32.521Z,100981.97
2022-08-22T12:27:18.408Z,100984.31
2022-08-22T12:30:04.453Z,100981.03
2022-08-22T12:32:34.011Z,100979.16
2022-08-22T12:35:39.078Z,100976.00
2022-08-22T12:38:29.201Z,100976.22
2022-08-22T12:41:13.484Z,100979.00
2022-08-22T12:44:17.667Z,100966.09
2022-08-22T12:47:01.105Z,100972.78
2022-08-22T12:50:13.111Z,100970.28
2022-08-22T12:53:07.291Z,100969.56
2022-08-22T12:55:44.818Z,100964.47
2022-08-22T12:58:44.214Z,100967.72
2022-08-22T13:01:12.201Z,100966.31
2022-08-22T13:03:49.016Z,100960.78
2022-08-22T13:06:37.045Z,100955.50
2022-08-22T13:09:28.690Z,100956.75
2022-08-22T13:12:20.007Z,100955.34
2022-08-22T13:14:58.809Z,100947.06
2022-08-22T13:17:26.223Z,100946.41
2022-08-22T13:20:04.656Z,100939.34
2022-08-22T13:22:34.933Z,100940.84
2022-08-22T13:25:16.259Z,100948.94
2022-08-22T13:27:56.696Z,100949.31
2022-08-22T13:30:29.801Z,100937.59
2022-08-22T13:33:04.367Z,100938.63
2022-08-22T13:35:44.658Z,100937.59
2022-08-22T13:38:25.622Z,100941.97
2022-08-22T13:40:55.558Z,100934.44
2022-08-22T13:43:32.434Z,100936.09
2022-08-22T13:46:03.192Z,100934.69
2022-08-22T13:48:49.582Z,100928.47
2022-08-22T13:51:31.238Z,100929.59
2022-08-22T13:54:02.627Z,100932.53
2022-08-22T13:57:02.928Z,100925.53
2022-08-22T13:59:53.636Z,100926.81
2022-08-22T14:02:43.352Z,100929.53
2022-08-22T14:05:17.347Z,100926.66
2022-08-22T14:08:02.812Z,100923.13
2022-08-22T14:10:34.600Z,100921.94
2022-08-22T14:13:01.161Z,100920.53
2022-08-22T14:15:32.458Z,100919.25
2022-08-22T14:18:18.715Z,100917.47
2022-08-22T14:20:47.524Z,100905.88
2022-08-22T14:23:23.992Z,100914.81
2022-08-22T14:25:54.559Z,100912.13
2022-08-22T14:28:32.290Z,100906.44
2022-08-22T14:31:13.549Z,100912.84
2022-08-22T14:33:46.790Z,100915.53
2022-08-22T14:36:24.991Z,100912.56
2022-08-22T14:38:57.707Z,100910.78
2022-08-22T14:41:56.089Z,100910.53
2022-08-22T14:44:36.656Z,100907.16
2022-08-22T14:47:08.341Z,100904.38
2022-08-22T14:50:02.507Z,100902.94
2022-08-22T14:53:03.001Z,100900.25
2022-08-22T14:55:31.606Z,100895.09
2022-08-22T14:58:07.513Z,100894.94
2022-08-22T15:00:38.409Z,100891.41
2022-08-22T15:03:13.947Z,100892.50
2022-08-22T15:05:45.200Z,100882.69
2022-08-22T15:08:21.894Z,100879.63
2022-08-22T15:11:25.176Z,100866.44
2022-08-22T15:13:56.716Z,100867.91
2022-08-22T15:16:34.281Z,100867.78
2022-08-22T15:19:03.333Z,100866.22
2022-08-22T15:21:33.778Z,100866.41
2022-08-22T15:24:09.573Z,100871.44
2022-08-22T15:26:50.354Z,100868.34
2022-08-22T15:29:31.095Z,100862.63
2022-08-22T15:32:02.343Z,100862.25
2022-08-22T15:34:52.302Z,100856.00
2022-08-22T15:37:19.168Z,100859.22
2022-08-22T15:40:40.395Z,100859.56
2022-08-22T15:43:35.216Z,100854.72
2022-08-22T15:46:20.792Z,100856.16
2022-08-22T15:49:13.928Z,100863.78
2022-08-22T15:51:46.877Z,100862.97
2022-08-22T15:54:25.487Z,100856.31
2022-08-22T15:56:52.748Z,100854.41
2022-08-22T15:59:22.115Z,100860.91
2022-08-22T16:01:59.138Z,100853.72
2022-08-22T16:04:49.342Z,100855.19
2022-08-22T16:07:32.595Z,100854.78
2022-08-22T16:09:59.831Z,100865.34
2022-08-22T16:12:29.860Z,100856.56
2022-08-22T16:14:57.691Z,100861.78
2022-08-22T16:17:30.035Z,100864.47
2022-08-22T16:20:20.394Z,100860.78
2022-08-22T16:22:58.748Z,100861.94
2022-08-22T16:25:50.151Z,100864.63
2022-08-22T16:28:41.424Z,100863.69
2022-08-22T16:31:23.845Z,100858.97
2022-08-22T16:33:51.337Z,100864.81
2022-08-22T16:36:17.964Z,100860.78
2022-08-22T16:38:48.555Z,100858.50
2022-08-22T16:41:31.330Z,100857.38
2022-08-22T16:44:28.581Z,100855.31
2022-08-22T16:47:17.540Z,100847.69
2022-08-22T16:49:50.279Z,100855.03
2022-08-22T16:52:25.934Z,100851.94
2022-08-22T16:54:58.746Z,100852.63
2022-08-22T16:57:33.198Z,100849.75
2022-08-22T17:00:32.163Z,100849.41
2022-08-22T17:03:25.239Z,100848.81
2022-08-22T17:06:16.031Z,100846.13
2022-08-22T17:08:42.971Z,100842.84
2022-08-22T17:11:25.380Z,100843.97
2022-08-22T17:14:19.673Z,100843.66
2022-08-22T17:17:15.426Z,100841.44
2022-08-22T17:20:34.640Z,100846.13
2022-08-22T17:23:20.882Z,100846.75
2022-08-22T17:26:12.405Z,100843.47
2022-08-22T17:28:54.572Z,100845.91
2022-08-22T17:31:55.045Z,100844.72
2022-08-22T17:34:50.665Z,100842.19
2022-08-22T17:37:25.954Z,100842.31
2022-08-22T17:40:17.664Z,100841.00
2022-08-22T17:43:06.200Z,100839.50
2022-08-22T17:46:00.536Z,100850.41
2022-08-22T17:48:48.114Z,100855.16
2022-08-22T17:51:32.287Z,100853.50
2022-08-22T17:54:15.414Z,100851.09
2022-08-22T17:56:42.015Z,100849.88
2022-08-22T17:59:26.851Z,100853.78
2022-08-22T18:02:09.573Z,100856.66
2022-08-22T18:04:58.819Z,100858.34
2022-08-22T18:07:32.361Z,100860.25
2022-08-22T18:10:17.503Z,100856.34
2022-08-22T18:13:01.359Z,100855.41
2022-08-22T18:15:57.605Z,100858.19
2022-08-22T18:18:44.872Z,100866.53
2022-08-22T18:21:33.318Z,100857.53
2022-08-22T18:24:14.410Z,100855.00
2022-08-22T18:26:44.044Z,100858.91
2022-08-22T18:29:16.236Z,100860.97
2022-08-22T18:31:51.843Z,100864.84
2022-08-22T18:34:21.091Z,100870.59
2022-08-22T18:37:04.012Z,100863.91
2022-08-22T18:39:46.688Z,100875.38
2022-08-22T18:42:19.520Z,100874.91
2022-08-22T18:44:46.233Z,100869.69
2022-08-22T18:47:24.662Z,100878.13
2022-08-22T18:49:54.787Z,100884.53
2022-08-22T18:52:34.180Z,100880.22
2022-08-22T18:55:19.264Z,100884.28
2022-08-22T18:58:03.222Z,100890.69
2022-08-22T19:01:07.401Z,100881.38
2022-08-22T19:03:39.846Z,100888.06
2022-08-22T19:06:09.216Z,100893.31
2022-08-22T19:08:51.671Z,100892.47
2022-08-22T19:11:42.013Z,100892.00
2022-08-22T19:14:26.922Z,100900.94
2022-08-22T19:16:59.507Z,100902.31
2022-08-22T19:20:01.127Z,100913.28
2022-08-22T19:22:35.947Z,100917.50
2022-08-22T19:25:09.128Z,100914.81
2022-08-22T19:27:41.824Z,100915.00
2022-08-22T19:30:34.365Z,100914.47
2022-08-22T19:33:04.225Z,100915.16
2022-08-22T19:35:41.866Z,100916.00
2022-08-22T19:38:10.550Z,100915.53
2022-08-22T19:40:46.390Z,100912.00
2022-08-22T19:43:28.209Z,100920.44
2022-08-22T19:45:56.215Z,100916.88
2022-08-22T19:48:31.408Z,100920.88
2022-08-22T19:51:31.055Z,100917.50
2022-08-22T19:54:16.299Z,100915.47
2022-08-22T19:57:12.034Z,100921.38
2022-08-22T20:00:02.471Z,100917.84
2022-08-22T20:03:02.170Z,100926.47
2022-08-22T20:05:47.373Z,100924.28
2022-08-22T20:08:36.559Z,100928.88
2022-08-22T20:11:26.959Z,100922.34
2022-08-22T20:14:30.893Z,100929.63
2022-08-22T20:17:19.480Z,100927.44
2022-08-22T20:22:48.144Z,100924.72
2022-08-22T20:25:41.513Z,100931.09
2022-08-22T20:28:08.520Z,100926.25
2022-08-22T20:30:43.538Z,100923.56
2022-08-22T20:33:14.682Z,100927.06
2022-08-22T20:35:45.508Z,100924.41
2022-08-22T20:38:17.566Z,100922.56
2022-08-22T20:41:02.702Z,100916.34
2022-08-22T20:43:46.840Z,100921.69
2022-08-22T20:46:32.631Z,100915.66
2022-08-22T20:49:01.168Z,100920.03
2022-08-22T20:51:32.254Z,100925.75
2022-08-22T20:54:00.601Z,100919.03
2022-08-22T20:56:57.733Z,100913.00
2022-08-22T20:59:31.052Z,100912.16
2022-08-22T21:02:08.935Z,100915.69
2022-08-22T21:04:48.110Z,100914.66
2022-08-22T21:07:23.152Z,100918.50
2022-08-22T21:10:47.239Z,100923.38
2022-08-22T21:13:19.811Z,100920.41
2022-08-22T21:15:48.257Z,100915.03
2022-08-22T21:18:29.297Z,100917.72
2022-08-22T21:21:24.934Z,100920.75
2022-08-22T21:24:09.780Z,100919.44
2022-08-22T21:26:45.444Z,100914.56
2022-08-22T21:29:11.867Z,100917.59
2022-08-22T21:31:52.868Z,100917.91
2022-08-22T21:34:36.487Z,100912.41
2022-08-22T21:37:14.956Z,100918.09
2022-08-22T21:39:48.911Z,100924.81
2022-08-22T21:42:33.847Z,100917.25
2022-08-22T21:45:04.344Z,100916.59
2022-08-22T21:47:34.025Z,100914.41
2022-08-22T21:50:15.501Z,100912.72
2022-08-22T21:52:59.669Z,100912.25
2022-08-22T21:55:46.954Z,100919.94
2022-08-22T21:58:34.909Z,100912.84
2022-08-22T22:01:31.418Z,100922.09
2022-08-22T22:03:59.493Z,100921.25
2022-08-22T22:06:26.887Z,100922.25
2022-08-22T22:08:53.477Z,100918.56
2022-08-22T22:11:20.156Z,100914.19
2022-08-22T22:13:46.888Z,100917.03
2022-08-22T22:16:19.681Z,100919.22
2022-08-22T22:18:46.257Z,100918.72
2022-08-22T22:21:12.843Z,100913.81
2022-08-22T22:23:39.408Z,100915.34
2022-08-22T22:26:06.181Z,100922.06
2022-08-22T22:28:37.018Z,100922.34
2022-08-22T22:31:04.190Z,100916.97
2022-08-22T22:33:34.313Z,100922.63
2022-08-22T22:36:12.868Z,100919.47
2022-08-22T22:38:40.731Z,100924.34
2022-08-22T22:41:07.840Z,100913.59
2022-08-22T22:43:34.436Z,100913.59
2022-08-22T22:46:01.089Z,100917.94
2022-08-22T22:48:27.679Z,100906.84
2022-08-22T22:50:55.055Z,100912.50
2022-08-22T22:53:28.594Z,100919.69
2022-08-22T22:56:07.700Z,100912.63
2022-08-22T22:58:36.932Z,100912.97
2022-08-22T23:01:20.595Z,100913.13
2022-08-22T23:03:48.350Z,100906.06
2022-08-22T23:06:17.733Z,100908.06
2022-08-22T23:08:45.499Z,100909.78
2022-08-22T23:11:13.734Z,100911.78
2022-08-22T23:13:41.720Z,100911.59
2022-08-22T23:16:13.740Z,100915.44
2022-08-22T23:18:41.255Z,100911.94
2022-08-22T23:21:10.843Z,100915.28
2022-08-22T23:23:37.543Z,100916.13
2022-08-22T23:26:04.203Z,100919.13
2022-08-22T23:28:30.761Z,100916.75
2022-08-22T23:31:07.927Z,100916.19
2022-08-22T23:33:35.232Z,100920.03
2022-08-22T23:36:01.981Z,100918.34
2022-08-22T23:38:28.526Z,100921.56
2022-08-22T23:40:55.101Z,100916.56
2022-08-22T23:43:21.636Z,100923.97
2022-08-22T23:45:48.221Z,100925.97
2022-08-22T23:48:14.810Z,100919.25
2022-08-22T23:50:41.369Z,100923.94
2022-08-22T23:53:08.076Z,100918.69
2022-08-22T23:55:34.657Z,100917.47
2022-08-22T23:58:01.357Z,100922.97
